Portada
METAR-TAF:

METAR-TAF

Aeroports :

Changsha, Xina

latitud: 28-11N, longitud: 113-13E, altitud: 66 m

Observació

L'informe es va fer fa 50 minuts, a les 01:00 UTC
Vent 6 kt del Nord/Nord-Est
Temperatura 6°C
Humitat 87%
Pressió 1031 hPa
Visibilitat: 2400 m
boirina

METAR: ZGHA 050100Z 02003MPS 2400 BR NSC 06/04 Q1031 NOSIG

Hora: 09:50 (01:50 UTC)

Pronòstic

L'informe es va fer fa 4 hores i 49 minuts, a les 21:01 UTC
Pronòstic vàlid del 05 a les 00 UTC al 05 a les 24 UTC
Vent 8 kt del Nord/Nord-Oest
Visibilitat: 3500 m
Núvols disperses a una alçada de 5000 ft
boirina

TAF: ZGHA 042101Z 0500/0524 34004MPS 3500 BR SCT050 TX09/0506Z TN04/0522Z

Observacions i pronòstics meteorològics de més de 4000 aeroports (METAR i TAF).

Les estacions disponibles són els punts grocs i vermells al mapa.

Posi el ratolí al punt desitjat per veure el nom de l'estació.

Feu clic per veure les observacions i els pronòstics meteorològics.

Per canviar el mapa: feu clic els botons verds amb una creu de color negre per apropar; al botó verd amb un guió per allunyar la imatge; o en les fletxes verdes per a mapes adjacents.


METAR-TAF: